sensor_id;sensor_type;location;lat;lon;timestamp;temperature;humidity
19292;DHT22;9779;51.756;7.450;2023-03-03T00:02:19;2.60;99.90
19292;DHT22;9779;51.756;7.450;2023-03-03T00:04:45;2.70;99.90
19292;DHT22;9779;51.756;7.450;2023-03-03T00:07:11;2.70;92.30
19292;DHT22;9779;51.756;7.450;2023-03-03T00:09:36;2.70;86.10
19292;DHT22;9779;51.756;7.450;2023-03-03T00:12:22;2.80;82.10
19292;DHT22;9779;51.756;7.450;2023-03-03T00:14:47;2.70;76.80
19292;DHT22;9779;51.756;7.450;2023-03-03T00:17:22;2.70;67.70
19292;DHT22;9779;51.756;7.450;2023-03-03T00:19:49;2.70;90.60
19292;DHT22;9779;51.756;7.450;2023-03-03T00:24:59;2.70;69.10
19292;DHT22;9779;51.756;7.450;2023-03-03T00:29:55;2.60;89.90
19292;DHT22;9779;51.756;7.450;2023-03-03T00:32:23;2.60;99.90
19292;DHT22;9779;51.756;7.450;2023-03-03T00:34:50;2.60;96.70
19292;DHT22;9779;51.756;7.450;2023-03-03T00:37:33;2.60;87.30
19292;DHT22;9779;51.756;7.450;2023-03-03T00:42:40;2.50;99.90
19292;DHT22;9779;51.756;7.450;2023-03-03T00:45:25;2.50;99.90
19292;DHT22;9779;51.756;7.450;2023-03-03T00:47:51;2.60;95.20
19292;DHT22;9779;51.756;7.450;2023-03-03T00:50:29;2.50;99.90
19292;DHT22;9779;51.756;7.450;2023-03-03T00:53:06;2.50;99.90
19292;DHT22;9779;51.756;7.450;2023-03-03T00:55:35;2.40;99.90
19292;DHT22;9779;51.756;7.450;2023-03-03T00:58:00;2.50;99.90
19292;DHT22;9779;51.756;7.450;2023-03-03T01:00:26;2.50;99.90
19292;DHT22;9779;51.756;7.450;2023-03-03T01:02:52;2.50;99.90
19292;DHT22;9779;51.756;7.450;2023-03-03T01:05:18;2.60;99.90
19292;DHT22;9779;51.756;7.450;2023-03-03T01:07:44;2.50;97.70
19292;DHT22;9779;51.756;7.450;2023-03-03T01:10:10;2.60;99.90
19292;DHT22;9779;51.756;7.450;2023-03-03T01:12:36;2.50;92.50
19292;DHT22;9779;51.756;7.450;2023-03-03T01:15:07;2.60;99.90
19292;DHT22;9779;51.756;7.450;2023-03-03T01:17:33;2.60;99.90
19292;DHT22;9779;51.756;7.450;2023-03-03T01:20:00;2.60;94.70
19292;DHT22;9779;51.756;7.450;2023-03-03T01:22:26;2.60;98.80
19292;DHT22;9779;51.756;7.450;2023-03-03T01:24:51;2.50;88.50
19292;DHT22;9779;51.756;7.450;2023-03-03T01:27:17;2.50;99.90
19292;DHT22;9779;51.756;7.450;2023-03-03T01:29:42;2.50;99.90
19292;DHT22;9779;51.756;7.450;2023-03-03T01:32:08;2.50;99.90
19292;DHT22;9779;51.756;7.450;2023-03-03T01:34:34;2.60;99.90
19292;DHT22;9779;51.756;7.450;2023-03-03T01:36:59;2.60;98.80
19292;DHT22;9779;51.756;7.450;2023-03-03T01:39:25;2.60;98.90
19292;DHT22;9779;51.756;7.450;2023-03-03T01:41:51;2.60;94.50
19292;DHT22;9779;51.756;7.450;2023-03-03T01:44:16;2.60;82.80
19292;DHT22;9779;51.756;7.450;2023-03-03T01:47:00;2.60;89.30
19292;DHT22;9779;51.756;7.450;2023-03-03T01:49:37;2.50;94.70
19292;DHT22;9779;51.756;7.450;2023-03-03T01:52:24;2.50;99.90
19292;DHT22;9779;51.756;7.450;2023-03-03T01:54:54;2.40;99.90
19292;DHT22;9779;51.756;7.450;2023-03-03T01:57:27;2.40;99.90
19292;DHT22;9779;51.756;7.450;2023-03-03T01:59:56;2.40;99.90
19292;DHT22;9779;51.756;7.450;2023-03-03T02:02:23;2.40;99.90
19292;DHT22;9779;51.756;7.450;2023-03-03T02:04:49;2.40;99.90
19292;DHT22;9779;51.756;7.450;2023-03-03T02:07:15;2.20;99.90
19292;DHT22;9779;51.756;7.450;2023-03-03T02:09:54;2.30;99.90
19292;DHT22;9779;51.756;7.450;2023-03-03T02:12:25;2.30;99.90
19292;DHT22;9779;51.756;7.450;2023-03-03T02:14:54;2.30;99.90
19292;DHT22;9779;51.756;7.450;2023-03-03T02:17:19;2.20;99.90
19292;DHT22;9779;51.756;7.450;2023-03-03T02:19:56;2.20;99.90
19292;DHT22;9779;51.756;7.450;2023-03-03T02:22:39;2.20;99.90
19292;DHT22;9779;51.756;7.450;2023-03-03T02:25:11;2.20;99.90
19292;DHT22;9779;51.756;7.450;2023-03-03T02:27:39;2.10;99.90
19292;DHT22;9779;51.756;7.450;2023-03-03T02:30:16;2.20;99.90
19292;DHT22;9779;51.756;7.450;2023-03-03T02:32:42;2.20;99.90
19292;DHT22;9779;51.756;7.450;2023-03-03T02:35:31;2.20;99.90
19292;DHT22;9779;51.756;7.450;2023-03-03T02:43:57;2.20;99.90
19292;DHT22;9779;51.756;7.450;2023-03-03T02:46:23;2.30;99.90
19292;DHT22;9779;51.756;7.450;2023-03-03T02:48:48;2.20;99.90
19292;DHT22;9779;51.756;7.450;2023-03-03T02:51:14;2.20;99.90
19292;DHT22;9779;51.756;7.450;2023-03-03T02:53:40;2.20;99.90
19292;DHT22;9779;51.756;7.450;2023-03-03T02:56:06;2.20;99.90
19292;DHT22;9779;51.756;7.450;2023-03-03T02:58:34;2.20;99.90
19292;DHT22;9779;51.756;7.450;2023-03-03T03:01:00;2.20;99.90
19292;DHT22;9779;51.756;7.450;2023-03-03T03:03:25;2.20;99.90
19292;DHT22;9779;51.756;7.450;2023-03-03T03:05:51;2.10;99.90
19292;DHT22;9779;51.756;7.450;2023-03-03T03:08:16;2.00;99.90
19292;DHT22;9779;51.756;7.450;2023-03-03T03:10:42;2.10;99.90
19292;DHT22;9779;51.756;7.450;2023-03-03T03:13:08;2.10;99.90
19292;DHT22;9779;51.756;7.450;2023-03-03T03:15:34;2.20;99.90
19292;DHT22;9779;51.756;7.450;2023-03-03T03:18:00;2.20;99.90
19292;DHT22;9779;51.756;7.450;2023-03-03T03:20:26;2.20;99.90
19292;DHT22;9779;51.756;7.450;2023-03-03T03:22:51;2.20;99.90
19292;DHT22;9779;51.756;7.450;2023-03-03T03:25:17;2.10;99.90
19292;DHT22;9779;51.756;7.450;2023-03-03T03:27:42;2.00;99.90
19292;DHT22;9779;51.756;7.450;2023-03-03T03:30:08;2.00;99.90
19292;DHT22;9779;51.756;7.450;2023-03-03T03:32:34;2.10;99.90
19292;DHT22;9779;51.756;7.450;2023-03-03T03:34:59;2.10;99.90
19292;DHT22;9779;51.756;7.450;2023-03-03T03:37:25;2.00;99.90
19292;DHT22;9779;51.756;7.450;2023-03-03T03:39:50;2.00;99.90
19292;DHT22;9779;51.756;7.450;2023-03-03T03:42:16;2.00;99.90
19292;DHT22;9779;51.756;7.450;2023-03-03T03:44:42;2.10;99.90
19292;DHT22;9779;51.756;7.450;2023-03-03T03:47:07;2.10;99.90
19292;DHT22;9779;51.756;7.450;2023-03-03T03:49:33;2.10;99.90
19292;DHT22;9779;51.756;7.450;2023-03-03T03:51:58;2.10;99.90
19292;DHT22;9779;51.756;7.450;2023-03-03T03:54:27;2.10;99.90
19292;DHT22;9779;51.756;7.450;2023-03-03T03:56:53;2.10;99.90
19292;DHT22;9779;51.756;7.450;2023-03-03T03:59:19;2.10;99.90
19292;DHT22;9779;51.756;7.450;2023-03-03T04:01:45;2.10;99.90
19292;DHT22;9779;51.756;7.450;2023-03-03T04:04:12;2.00;99.90
19292;DHT22;9779;51.756;7.450;2023-03-03T04:06:38;2.00;99.90
19292;DHT22;9779;51.756;7.450;2023-03-03T04:09:04;1.90;99.90
19292;DHT22;9779;51.756;7.450;2023-03-03T04:11:30;1.90;99.90
19292;DHT22;9779;51.756;7.450;2023-03-03T04:13:56;1.90;99.90
19292;DHT22;9779;51.756;7.450;2023-03-03T04:16:21;1.80;99.90
19292;DHT22;9779;51.756;7.450;2023-03-03T04:18:47;1.90;99.90
19292;DHT22;9779;51.756;7.450;2023-03-03T04:21:14;1.90;99.90
19292;DHT22;9779;51.756;7.450;2023-03-03T04:23:39;1.90;99.90
19292;DHT22;9779;51.756;7.450;2023-03-03T04:26:05;1.90;99.90
19292;DHT22;9779;51.756;7.450;2023-03-03T04:28:31;1.90;99.90
19292;DHT22;9779;51.756;7.450;2023-03-03T04:30:57;1.90;99.90
19292;DHT22;9779;51.756;7.450;2023-03-03T04:33:22;1.90;99.90
19292;DHT22;9779;51.756;7.450;2023-03-03T04:35:48;1.90;99.90
19292;DHT22;9779;51.756;7.450;2023-03-03T04:38:14;1.90;99.90
19292;DHT22;9779;51.756;7.450;2023-03-03T04:40:40;1.90;99.90
19292;DHT22;9779;51.756;7.450;2023-03-03T04:43:06;1.90;99.90
19292;DHT22;9779;51.756;7.450;2023-03-03T04:45:32;1.90;99.90
19292;DHT22;9779;51.756;7.450;2023-03-03T04:47:57;1.80;99.90
19292;DHT22;9779;51.756;7.450;2023-03-03T04:50:23;1.80;99.90
19292;DHT22;9779;51.756;7.450;2023-03-03T04:52:48;1.90;99.90
19292;DHT22;9779;51.756;7.450;2023-03-03T04:55:14;1.90;99.90
19292;DHT22;9779;51.756;7.450;2023-03-03T04:57:41;1.90;99.90
19292;DHT22;9779;51.756;7.450;2023-03-03T05:00:07;1.90;99.90
19292;DHT22;9779;51.756;7.450;2023-03-03T05:02:33;1.90;99.90
19292;DHT22;9779;51.756;7.450;2023-03-03T05:04:58;1.80;99.90
19292;DHT22;9779;51.756;7.450;2023-03-03T05:07:24;1.90;99.90
19292;DHT22;9779;51.756;7.450;2023-03-03T05:09:50;1.90;99.90
19292;DHT22;9779;51.756;7.450;2023-03-03T05:12:17;1.90;99.90
19292;DHT22;9779;51.756;7.450;2023-03-03T05:14:42;1.90;99.90
19292;DHT22;9779;51.756;7.450;2023-03-03T05:17:08;1.90;99.90
19292;DHT22;9779;51.756;7.450;2023-03-03T05:19:33;1.90;99.90
19292;DHT22;9779;51.756;7.450;2023-03-03T05:22:00;2.00;99.90
19292;DHT22;9779;51.756;7.450;2023-03-03T05:24:26;2.00;99.90
19292;DHT22;9779;51.756;7.450;2023-03-03T05:26:52;2.00;99.90
19292;DHT22;9779;51.756;7.450;2023-03-03T05:29:17;2.00;99.90
19292;DHT22;9779;51.756;7.450;2023-03-03T05:31:43;2.10;99.90
19292;DHT22;9779;51.756;7.450;2023-03-03T05:34:08;2.10;99.90
19292;DHT22;9779;51.756;7.450;2023-03-03T05:36:34;2.00;99.90
19292;DHT22;9779;51.756;7.450;2023-03-03T05:38:59;2.00;99.90
19292;DHT22;9779;51.756;7.450;2023-03-03T05:41:25;2.00;99.90
19292;DHT22;9779;51.756;7.450;2023-03-03T05:43:50;2.00;99.90
19292;DHT22;9779;51.756;7.450;2023-03-03T05:46:16;2.00;99.90
19292;DHT22;9779;51.756;7.450;2023-03-03T05:48:42;2.00;99.90
19292;DHT22;9779;51.756;7.450;2023-03-03T05:51:07;2.10;99.90
19292;DHT22;9779;51.756;7.450;2023-03-03T05:53:33;2.10;99.90
19292;DHT22;9779;51.756;7.450;2023-03-03T05:55:58;2.10;99.90
19292;DHT22;9779;51.756;7.450;2023-03-03T05:58:24;2.10;99.90
19292;DHT22;9779;51.756;7.450;2023-03-03T06:00:49;2.10;99.90
19292;DHT22;9779;51.756;7.450;2023-03-03T06:03:15;2.00;99.90
19292;DHT22;9779;51.756;7.450;2023-03-03T06:05:41;2.00;99.90
19292;DHT22;9779;51.756;7.450;2023-03-03T06:08:07;2.10;99.90
19292;DHT22;9779;51.756;7.450;2023-03-03T06:10:32;2.10;99.90
19292;DHT22;9779;51.756;7.450;2023-03-03T06:12:58;2.10;99.90
19292;DHT22;9779;51.756;7.450;2023-03-03T06:15:23;2.10;99.90
19292;DHT22;9779;51.756;7.450;2023-03-03T06:17:49;2.10;99.90
19292;DHT22;9779;51.756;7.450;2023-03-03T06:20:15;2.00;99.90
19292;DHT22;9779;51.756;7.450;2023-03-03T06:22:40;1.90;99.90
19292;DHT22;9779;51.756;7.450;2023-03-03T06:25:06;2.00;99.90
19292;DHT22;9779;51.756;7.450;2023-03-03T06:27:32;2.00;99.90
19292;DHT22;9779;51.756;7.450;2023-03-03T06:29:58;2.00;99.90
19292;DHT22;9779;51.756;7.450;2023-03-03T06:32:23;2.00;99.90
19292;DHT22;9779;51.756;7.450;2023-03-03T06:34:49;2.00;99.90
19292;DHT22;9779;51.756;7.450;2023-03-03T06:37:14;2.00;99.90
19292;DHT22;9779;51.756;7.450;2023-03-03T06:39:40;2.00;99.90
19292;DHT22;9779;51.756;7.450;2023-03-03T06:42:06;1.90;99.90
19292;DHT22;9779;51.756;7.450;2023-03-03T06:44:34;1.90;99.90
19292;DHT22;9779;51.756;7.450;2023-03-03T06:46:59;1.90;99.90
19292;DHT22;9779;51.756;7.450;2023-03-03T06:49:25;1.80;99.90
19292;DHT22;9779;51.756;7.450;2023-03-03T06:51:51;1.80;99.90
19292;DHT22;9779;51.756;7.450;2023-03-03T06:54:19;1.80;99.90
19292;DHT22;9779;51.756;7.450;2023-03-03T06:56:45;1.80;99.90
19292;DHT22;9779;51.756;7.450;2023-03-03T06:59:17;1.80;99.90
19292;DHT22;9779;51.756;7.450;2023-03-03T07:01:45;1.80;99.90
19292;DHT22;9779;51.756;7.450;2023-03-03T07:04:31;1.70;99.90
19292;DHT22;9779;51.756;7.450;2023-03-03T07:07:04;1.80;99.90
19292;DHT22;9779;51.756;7.450;2023-03-03T07:09:32;1.70;99.90
19292;DHT22;9779;51.756;7.450;2023-03-03T07:12:08;1.70;99.90
19292;DHT22;9779;51.756;7.450;2023-03-03T07:14:39;1.80;99.90
19292;DHT22;9779;51.756;7.450;2023-03-03T07:17:19;1.70;99.90
19292;DHT22;9779;51.756;7.450;2023-03-03T07:19:46;1.70;99.90
19292;DHT22;9779;51.756;7.450;2023-03-03T07:22:18;1.70;99.90
19292;DHT22;9779;51.756;7.450;2023-03-03T07:24:47;1.80;99.90
19292;DHT22;9779;51.756;7.450;2023-03-03T07:29:47;1.80;99.90
19292;DHT22;9779;51.756;7.450;2023-03-03T07:34:57;1.80;99.90
19292;DHT22;9779;51.756;7.450;2023-03-03T07:37:35;1.80;99.90
19292;DHT22;9779;51.756;7.450;2023-03-03T07:40:38;1.80;99.90
19292;DHT22;9779;51.756;7.450;2023-03-03T07:46:22;1.80;99.90
19292;DHT22;9779;51.756;7.450;2023-03-03T07:48:48;1.80;99.90
19292;DHT22;9779;51.756;7.450;2023-03-03T07:51:27;1.70;99.90
19292;DHT22;9779;51.756;7.450;2023-03-03T07:54:10;1.70;99.90
19292;DHT22;9779;51.756;7.450;2023-03-03T07:56:38;1.70;99.90
19292;DHT22;9779;51.756;7.450;2023-03-03T07:59:23;1.70;99.90
19292;DHT22;9779;51.756;7.450;2023-03-03T08:01:54;1.70;99.90
19292;DHT22;9779;51.756;7.450;2023-03-03T08:04:41;1.70;99.90
19292;DHT22;9779;51.756;7.450;2023-03-03T08:07:13;1.70;99.90
19292;DHT22;9779;51.756;7.450;2023-03-03T08:09:55;1.70;99.90
19292;DHT22;9779;51.756;7.450;2023-03-03T08:12:30;1.70;99.90
19292;DHT22;9779;51.756;7.450;2023-03-03T08:15:06;1.70;99.90
19292;DHT22;9779;51.756;7.450;2023-03-03T08:17:38;1.70;99.90
19292;DHT22;9779;51.756;7.450;2023-03-03T08:20:41;1.70;99.90
19292;DHT22;9779;51.756;7.450;2023-03-03T08:23:09;1.70;99.90
19292;DHT22;9779;51.756;7.450;2023-03-03T08:25:34;1.80;99.90
19292;DHT22;9779;51.756;7.450;2023-03-03T08:28:00;1.70;99.90
19292;DHT22;9779;51.756;7.450;2023-03-03T08:30:25;1.80;99.90
19292;DHT22;9779;51.756;7.450;2023-03-03T08:32:51;1.80;99.90
19292;DHT22;9779;51.756;7.450;2023-03-03T08:35:17;1.80;99.90
19292;DHT22;9779;51.756;7.450;2023-03-03T08:37:42;1.90;99.90
19292;DHT22;9779;51.756;7.450;2023-03-03T08:40:08;1.90;99.90
19292;DHT22;9779;51.756;7.450;2023-03-03T08:42:34;1.80;99.90
19292;DHT22;9779;51.756;7.450;2023-03-03T08:44:59;1.80;99.90
19292;DHT22;9779;51.756;7.450;2023-03-03T08:47:25;1.80;99.90
19292;DHT22;9779;51.756;7.450;2023-03-03T08:49:50;1.80;99.90
19292;DHT22;9779;51.756;7.450;2023-03-03T08:52:16;1.90;99.90
19292;DHT22;9779;51.756;7.450;2023-03-03T08:54:42;1.90;99.90
19292;DHT22;9779;51.756;7.450;2023-03-03T08:57:07;2.00;99.90
19292;DHT22;9779;51.756;7.450;2023-03-03T08:59:33;2.00;99.90
19292;DHT22;9779;51.756;7.450;2023-03-03T09:02:04;2.00;99.90
19292;DHT22;9779;51.756;7.450;2023-03-03T09:04:29;2.00;99.90
19292;DHT22;9779;51.756;7.450;2023-03-03T09:06:55;2.00;99.90
19292;DHT22;9779;51.756;7.450;2023-03-03T09:09:20;2.10;99.90
19292;DHT22;9779;51.756;7.450;2023-03-03T09:11:46;2.00;99.90
19292;DHT22;9779;51.756;7.450;2023-03-03T09:14:16;2.00;99.90
19292;DHT22;9779;51.756;7.450;2023-03-03T09:16:53;2.10;99.90
19292;DHT22;9779;51.756;7.450;2023-03-03T09:19:25;2.10;99.90
19292;DHT22;9779;51.756;7.450;2023-03-03T09:21:52;2.10;99.90
19292;DHT22;9779;51.756;7.450;2023-03-03T09:24:27;2.10;99.90
19292;DHT22;9779;51.756;7.450;2023-03-03T09:26:52;2.00;99.90
19292;DHT22;9779;51.756;7.450;2023-03-03T09:31:58;2.10;99.90
19292;DHT22;9779;51.756;7.450;2023-03-03T09:37:32;2.00;99.90
19292;DHT22;9779;51.756;7.450;2023-03-03T09:40:35;2.00;99.90
19292;DHT22;9779;51.756;7.450;2023-03-03T09:43:01;2.00;99.90
19292;DHT22;9779;51.756;7.450;2023-03-03T09:45:35;2.10;99.90
19292;DHT22;9779;51.756;7.450;2023-03-03T09:48:25;2.10;99.90
19292;DHT22;9779;51.756;7.450;2023-03-03T09:59:37;2.30;91.90
19292;DHT22;9779;51.756;7.450;2023-03-03T10:02:43;2.80;99.90
19292;DHT22;9779;51.756;7.450;2023-03-03T10:05:18;3.90;99.90
19292;DHT22;9779;51.756;7.450;2023-03-03T10:07:52;3.20;99.90
19292;DHT22;9779;51.756;7.450;2023-03-03T10:13:40;2.80;99.90
19292;DHT22;9779;51.756;7.450;2023-03-03T10:27:59;2.70;99.90
19292;DHT22;9779;51.756;7.450;2023-03-03T10:33:22;2.90;99.90
19292;DHT22;9779;51.756;7.450;2023-03-03T10:57:24;3.30;1.00
19292;DHT22;9779;51.756;7.450;2023-03-03T11:05:48;3.40;1.00
19292;DHT22;9779;51.756;7.450;2023-03-03T11:08:27;3.50;1.00
19292;DHT22;9779;51.756;7.450;2023-03-03T11:20:02;3.60;1.00
19292;DHT22;9779;51.756;7.450;2023-03-03T11:22:54;3.70;1.00
19292;DHT22;9779;51.756;7.450;2023-03-03T11:32:16;3.90;1.00
19292;DHT22;9779;51.756;7.450;2023-03-03T11:40:36;4.00;1.00
19292;DHT22;9779;51.756;7.450;2023-03-03T11:45:56;4.10;1.00
19292;DHT22;9779;51.756;7.450;2023-03-03T11:51:47;4.20;1.00
19292;DHT22;9779;51.756;7.450;2023-03-03T11:54:23;4.20;1.00
19292;DHT22;9779;51.756;7.450;2023-03-03T11:56:49;4.30;1.00
19292;DHT22;9779;51.756;7.450;2023-03-03T11:59:36;4.30;1.00
19292;DHT22;9779;51.756;7.450;2023-03-03T12:02:19;4.30;1.00
19292;DHT22;9779;51.756;7.450;2023-03-03T12:04:56;4.30;1.00
19292;DHT22;9779;51.756;7.450;2023-03-03T12:07:31;4.50;1.00
19292;DHT22;9779;51.756;7.450;2023-03-03T12:10:10;4.60;1.00
19292;DHT22;9779;51.756;7.450;2023-03-03T12:12:58;4.80;1.00
19292;DHT22;9779;51.756;7.450;2023-03-03T12:15:35;5.10;1.00
19292;DHT22;9779;51.756;7.450;2023-03-03T12:23:37;5.50;99.90
19292;DHT22;9779;51.756;7.450;2023-03-03T12:26:39;5.60;99.90
19292;DHT22;9779;51.756;7.450;2023-03-03T12:29:29;6.20;99.90
19292;DHT22;9779;51.756;7.450;2023-03-03T12:34:33;6.30;1.00
19292;DHT22;9779;51.756;7.450;2023-03-03T12:40:22;6.30;1.00
19292;DHT22;9779;51.756;7.450;2023-03-03T12:46:01;6.50;99.90
19292;DHT22;9779;51.756;7.450;2023-03-03T12:56:17;6.90;1.00
19292;DHT22;9779;51.756;7.450;2023-03-03T13:04:36;7.80;1.00
19292;DHT22;9779;51.756;7.450;2023-03-03T13:07:15;7.90;1.00
19292;DHT22;9779;51.756;7.450;2023-03-03T13:10:22;8.10;1.00
19292;DHT22;9779;51.756;7.450;2023-03-03T13:12:59;8.00;1.00
19292;DHT22;9779;51.756;7.450;2023-03-03T13:15:30;8.00;1.00
19292;DHT22;9779;51.756;7.450;2023-03-03T13:21:03;8.40;1.00
19292;DHT22;9779;51.756;7.450;2023-03-03T13:23:38;8.50;99.90
19292;DHT22;9779;51.756;7.450;2023-03-03T13:26:15;8.60;1.00
19292;DHT22;9779;51.756;7.450;2023-03-03T13:28:59;8.40;1.00
19292;DHT22;9779;51.756;7.450;2023-03-03T13:31:32;8.30;1.00
19292;DHT22;9779;51.756;7.450;2023-03-03T13:34:00;8.30;60.80
19292;DHT22;9779;51.756;7.450;2023-03-03T13:36:36;8.20;1.00
19292;DHT22;9779;51.756;7.450;2023-03-03T13:41:53;8.70;1.00
19292;DHT22;9779;51.756;7.450;2023-03-03T13:52:17;10.00;99.90
